Time;durP1;ratioP1;P1;durP2;ratioP2;P2;SDS_P1;SDS_P2;PMS_P1;PMS_P2;Temp;Humidity;BMP_temperature;BMP_pressure;BME280_temperature;BME280_humidity;BME280_pressure;Samples;Min_cycle;Max_cycle;Signal;HPM_P1;HPM_P2
2021/05/23 00:01:52;;;;;;;3.90;2.27;;;;;;;12.17;62.67;98685.13;262921;1105;115340;-63
2021/05/23 00:06:56;;;;;;;4.53;2.57;;;;;;;12.21;62.74;98697.27;263157;1103;114883;-63
2021/05/23 00:12:00;;;;;;;3.73;2.20;;;;;;;12.27;62.04;98697.67;262810;1099;115632;-65
2021/05/23 00:17:04;;;;;;;4.23;2.30;;;;;;;12.28;62.68;98701.19;263087;1103;115104;-65
2021/05/23 00:22:08;;;;;;;6.95;3.03;;;;;;;12.22;62.41;98693.63;263137;1100;114853;-66
2021/05/23 00:27:11;;;;;;;4.90;2.60;;;;;;;12.15;61.90;98687.89;263048;1103;115536;-66
2021/05/23 00:32:17;;;;;;;5.10;2.60;;;;;;;12.04;62.18;98702.03;263128;1099;115047;-65
2021/05/23 00:37:26;;;;;;;3.97;2.67;;;;;;;11.95;62.74;98696.52;263104;1104;114322;-66
2021/05/23 00:42:29;;;;;;;5.00;2.50;;;;;;;11.88;62.76;98698.78;262924;1099;114458;-64
2021/05/23 00:47:34;;;;;;;6.23;2.73;;;;;;;11.86;62.42;98705.20;263117;1104;114492;-64
2021/05/23 00:52:39;;;;;;;7.27;2.70;;;;;;;11.82;63.14;98707.22;263087;1104;115068;-63
2021/05/23 00:57:42;;;;;;;8.73;3.00;;;;;;;11.82;62.39;98701.88;263124;1104;114797;-63
2021/05/23 01:02:49;;;;;;;5.50;2.97;;;;;;;11.75;62.76;98695.27;263068;1099;115114;-63
2021/05/23 01:07:53;;;;;;;4.47;2.70;;;;;;;11.70;62.76;98682.27;263119;1104;114633;-63
2021/05/23 01:12:57;;;;;;;5.30;2.70;;;;;;;11.60;62.97;98676.75;263085;1099;115281;-63
2021/05/23 01:18:10;;;;;;;5.68;2.70;;;;;;;11.48;63.16;98685.65;262013;1104;114783;-64
2021/05/23 01:23:30;;;;;;;4.30;2.60;;;;;;;11.34;63.39;98685.75;262871;1100;114961;-65
2021/05/23 01:28:40;;;;;;;5.80;2.83;;;;;;;11.21;63.73;98684.91;262849;1104;115005;-63
2021/05/23 01:33:49;;;;;;;5.30;3.00;;;;;;;11.18;63.76;98693.14;263102;1100;116118;-64
2021/05/23 01:38:54;;;;;;;6.78;2.50;;;;;;;11.13;63.66;98683.64;263127;1104;115106;-63
2021/05/23 01:43:59;;;;;;;5.27;2.63;;;;;;;11.08;63.89;98680.47;262943;1100;114985;-64
2021/05/23 01:49:03;;;;;;;7.40;2.63;;;;;;;11.05;63.49;98678.02;263110;1104;115652;-63
2021/05/23 01:54:07;;;;;;;7.03;3.00;;;;;;;10.99;63.68;98683.76;263153;1099;114982;-64
2021/05/23 01:59:11;;;;;;;5.93;2.63;;;;;;;10.93;64.12;98688.66;262439;1104;114979;-64
2021/05/23 02:04:15;;;;;;;4.18;2.43;;;;;;;10.85;64.23;98691.86;262979;1099;114471;-62
2021/05/23 02:09:19;;;;;;;7.58;2.38;;;;;;;10.78;64.42;98691.42;262907;1103;115069;-64
2021/05/23 02:14:23;;;;;;;6.17;2.40;;;;;;;10.79;64.76;98701.09;263068;1099;115094;-64
2021/05/23 02:19:26;;;;;;;6.00;2.85;;;;;;;10.82;64.84;98703.55;262418;1105;114830;-65
2021/05/23 02:24:30;;;;;;;4.90;2.45;;;;;;;10.85;64.60;98697.17;263067;1099;115137;-64
2021/05/23 02:29:34;;;;;;;6.30;2.45;;;;;;;10.88;64.91;98696.97;263106;1104;114593;-64
2021/05/23 02:34:46;;;;;;;5.07;2.60;;;;;;;10.86;64.31;98701.53;263076;1099;114954;-64
2021/05/23 02:39:50;;;;;;;4.67;2.50;;;;;;;10.91;65.12;98691.44;262733;1104;114483;-63
2021/05/23 02:44:53;;;;;;;7.03;2.67;;;;;;;11.00;64.82;98696.10;263071;1099;114850;-64
2021/05/23 02:49:58;;;;;;;5.00;2.70;;;;;;;11.01;64.42;98700.49;263096;1104;114642;-64
2021/05/23 02:55:01;;;;;;;4.70;2.75;;;;;;;11.02;64.82;98704.84;262834;1100;115037;-64
2021/05/23 03:00:08;;;;;;;5.13;2.50;;;;;;;11.07;64.55;98707.19;262874;1104;114402;-63
2021/05/23 03:05:14;;;;;;;6.40;2.77;;;;;;;11.17;64.57;98718.05;263091;1100;115147;-65
2021/05/23 03:10:31;;;;;;;4.70;2.85;;;;;;;11.26;65.00;98720.08;263117;1100;114971;-64
2021/05/23 03:15:36;;;;;;;4.23;2.20;;;;;;;11.29;64.11;98735.86;263070;1100;115520;-65
2021/05/23 03:20:41;;;;;;;3.95;2.33;;;;;;;11.34;63.99;98734.59;263133;1104;114704;-64
2021/05/23 03:25:45;;;;;;;6.27;2.40;;;;;;;11.39;64.80;98736.91;263058;1099;115345;-63
2021/05/23 03:30:49;;;;;;;4.63;2.20;;;;;;;11.47;64.27;98745.21;262802;1104;115203;-65
2021/05/23 03:35:53;;;;;;;8.27;2.30;;;;;;;11.54;63.97;98743.81;262873;1100;115370;-66
2021/05/23 03:40:56;;;;;;;4.00;1.93;;;;;;;11.64;63.68;98745.84;262583;1104;114747;-65
2021/05/23 03:46:00;;;;;;;3.63;1.78;;;;;;;11.71;63.57;98747.09;263104;1099;115838;-64
2021/05/23 03:51:04;;;;;;;6.40;1.90;;;;;;;11.84;64.32;98742.63;263129;1104;115232;-65
2021/05/23 03:56:07;;;;;;;3.43;2.33;;;;;;;11.99;64.08;98746.88;262803;1099;115783;-65
2021/05/23 04:01:11;;;;;;;6.40;2.30;;;;;;;12.14;63.82;98741.38;263071;1104;115402;-64
2021/05/23 04:06:15;;;;;;;4.33;2.13;;;;;;;12.24;63.68;98739.73;262828;1100;115317;-65
2021/05/23 04:11:24;;;;;;;5.10;2.50;;;;;;;12.28;63.46;98736.72;263104;1100;114506;-63
2021/05/23 04:16:28;;;;;;;6.43;2.60;;;;;;;12.31;63.03;98739.16;262982;1100;114526;-63
2021/05/23 04:21:32;;;;;;;3.60;1.77;;;;;;;12.33;63.10;98739.06;263063;1103;114699;-63
2021/05/23 04:26:36;;;;;;;3.70;2.10;;;;;;;12.33;63.11;98739.06;263099;1097;114862;-64
2021/05/23 04:31:39;;;;;;;3.27;1.87;;;;;;;12.35;62.61;98739.78;263093;1104;114536;-64
2021/05/23 04:36:43;;;;;;;5.98;2.23;;;;;;;12.38;62.93;98736.05;263125;1099;114863;-64
2021/05/23 04:41:47;;;;;;;6.53;2.28;;;;;;;12.48;63.17;98737.91;262789;1104;115030;-63
2021/05/23 04:46:51;;;;;;;3.00;1.70;;;;;;;12.59;62.41;98739.77;262705;1100;114425;-63
2021/05/23 04:51:57;;;;;;;4.30;2.10;;;;;;;12.65;62.43;98741.98;261962;1104;115127;-66
2021/05/23 04:57:08;;;;;;;3.37;1.80;;;;;;;12.68;62.19;98732.90;262353;1099;115141;-65
2021/05/23 05:02:11;;;;;;;4.88;1.70;;;;;;;12.74;62.60;98741.30;263139;1104;114896;-66
2021/05/23 05:07:15;;;;;;;3.03;1.87;;;;;;;12.82;62.30;98742.53;262778;1104;115470;-63
2021/05/23 05:12:20;;;;;;;5.68;2.00;;;;;;;12.87;62.80;98745.69;263141;1104;115176;-64
2021/05/23 05:17:24;;;;;;;3.55;2.00;;;;;;;12.92;63.13;98752.39;263092;1097;114575;-65
2021/05/23 05:22:28;;;;;;;7.08;1.98;;;;;;;12.96;62.47;98742.33;262639;1104;115365;-64
2021/05/23 05:27:32;;;;;;;7.40;2.30;;;;;;;12.97;62.72;98736.00;262645;1100;115227;-63
2021/05/23 05:32:37;;;;;;;4.65;2.05;;;;;;;13.02;62.19;98737.36;262906;1104;115024;-65
2021/05/23 05:37:41;;;;;;;3.20;1.80;;;;;;;13.20;62.63;98744.92;263098;1099;115333;-64
2021/05/23 05:42:44;;;;;;;3.73;1.90;;;;;;;13.41;63.09;98740.60;263122;1104;114874;-65
2021/05/23 05:47:48;;;;;;;4.63;2.20;;;;;;;13.62;62.95;98747.90;263064;1099;114848;-65
2021/05/23 05:52:52;;;;;;;4.10;2.10;;;;;;;13.78;62.27;98736.84;262510;1104;115134;-64
2021/05/23 05:57:55;;;;;;;3.87;1.70;;;;;;;13.89;62.07;98739.50;262942;1099;115123;-65
2021/05/23 06:03:01;;;;;;;5.37;1.60;;;;;;;13.99;62.23;98744.96;263109;1104;114762;-63
2021/05/23 06:08:05;;;;;;;3.50;1.90;;;;;;;14.07;61.61;98750.56;263090;1099;114656;-64
2021/05/23 06:13:09;;;;;;;4.03;1.83;;;;;;;14.17;61.98;98744.33;263054;1104;114893;-65
2021/05/23 06:18:13;;;;;;;2.00;1.50;;;;;;;14.29;61.92;98745.14;263065;1100;114756;-64
2021/05/23 06:23:17;;;;;;;2.27;1.40;;;;;;;14.37;61.76;98747.21;262776;1104;114743;-63
2021/05/23 06:28:21;;;;;;;3.65;1.60;;;;;;;14.46;61.01;98742.91;262616;1100;114774;-64
2021/05/23 06:33:24;;;;;;;6.63;1.80;;;;;;;14.52;60.92;98739.76;263072;1104;114731;-64
2021/05/23 06:38:28;;;;;;;4.80;1.70;;;;;;;14.60;60.71;98734.60;263071;1099;114999;-64
2021/05/23 06:43:32;;;;;;;2.15;1.50;;;;;;;14.69;60.59;98741.88;263131;1104;115149;-63
2021/05/23 06:48:36;;;;;;;2.40;1.30;;;;;;;14.78;60.66;98730.40;262680;1100;115153;-64
2021/05/23 06:53:41;;;;;;;2.90;1.57;;;;;;;14.88;60.43;98736.68;263157;1104;114777;-64
2021/05/23 06:58:45;;;;;;;2.63;1.63;;;;;;;15.01;60.11;98739.14;263108;1099;114476;-63
2021/05/23 07:03:49;;;;;;;2.88;1.10;;;;;;;15.13;60.21;98739.94;263127;1100;115789;-66
2021/05/23 07:08:53;;;;;;;3.18;1.20;;;;;;;15.24;59.71;98752.42;262875;1100;114596;-64
2021/05/23 07:13:56;;;;;;;3.37;1.20;;;;;;;15.32;59.43;98739.23;263126;1104;114884;-64
2021/05/23 07:19:00;;;;;;;6.73;1.53;;;;;;;15.41;59.40;98753.66;262565;1100;115594;-64
2021/05/23 07:24:05;;;;;;;2.87;1.20;;;;;;;15.50;59.44;98737.62;263111;1104;115481;-65
2021/05/23 07:29:09;;;;;;;3.25;1.38;;;;;;;15.60;59.45;98743.88;262549;1100;114965;-65
2021/05/23 07:34:14;;;;;;;2.93;1.30;;;;;;;15.72;59.38;98747.33;263148;1104;115437;-66
2021/05/23 07:39:18;;;;;;;2.10;1.30;;;;;;;15.85;59.00;98752.47;262848;1100;115298;-65
2021/05/23 07:44:21;;;;;;;2.67;1.30;;;;;;;15.99;58.87;98749.41;263057;1104;114892;-66
2021/05/23 07:49:25;;;;;;;3.30;1.20;;;;;;;16.20;58.86;98745.79;262825;1099;115163;-65
2021/05/23 07:54:29;;;;;;;5.00;1.13;;;;;;;16.37;58.59;98741.58;262695;1104;114354;-65
2021/05/23 07:59:35;;;;;;;2.95;1.25;;;;;;;16.56;58.58;98730.87;262975;1100;114589;-65
2021/05/23 08:04:39;;;;;;;4.17;1.00;;;;;;;16.72;57.88;98735.69;263075;1104;114482;-65
2021/05/23 08:09:43;;;;;;;5.07;1.20;;;;;;;16.84;57.17;98728.34;262713;1100;114899;-65
2021/05/23 08:14:47;;;;;;;3.95;1.03;;;;;;;16.96;56.79;98725.38;262754;1105;115122;-65
2021/05/23 08:19:51;;;;;;;4.30;1.33;;;;;;;17.11;56.48;98731.14;262668;1100;115027;-65
2021/05/23 08:24:54;;;;;;;2.93;1.10;;;;;;;17.25;56.13;98728.03;263061;1104;114986;-65
2021/05/23 08:30:05;;;;;;;9.73;2.60;;;;;;;17.36;55.68;98724.31;263017;1099;114726;-66
2021/05/23 08:35:11;;;;;;;2.50;1.03;;;;;;;17.50;54.98;98720.30;262640;1104;115426;-66
2021/05/23 08:40:16;;;;;;;2.13;1.10;;;;;;;17.66;54.48;98725.04;263094;1100;114752;-64
2021/05/23 08:45:20;;;;;;;3.30;0.83;;;;;;;17.80;53.82;98723.73;263036;1104;114828;-66
2021/05/23 08:50:24;;;;;;;2.23;1.00;;;;;;;17.89;53.84;98722.84;262866;1100;115108;-66
2021/05/23 08:55:29;;;;;;;;;;;;;;;17.99;53.62;98715.56;262783;1104;115172;-66
2021/05/23 09:00:34;;;;;;;1.50;0.90;;;;;;;18.03;52.33;98713.42;262936;1100;101414;-66
2021/05/23 09:05:43;;;;;;;2.33;1.00;;;;;;;18.08;52.16;98724.61;262734;1104;114835;-64
2021/05/23 15:31:51;;;;;;;3.00;1.40;;;;;;;13.90;59.61;99017.62;263058;1100;115402;-67
2021/05/23 17:38:49;;;;;;;7.88;3.08;;;;;;;13.07;63.99;99083.47;263843;1095;114525;-66
2021/05/23 17:44:48;;;;;;;8.23;2.80;;;;;;;13.16;64.05;99082.81;263850;1100;114735;-66
2021/05/23 17:50:48;;;;;;;5.80;2.93;;;;;;;13.21;64.31;99091.34;263830;1096;114020;-66
2021/05/23 17:56:48;;;;;;;4.58;3.00;;;;;;;13.22;64.21;99103.77;263868;1096;114316;-65
2021/05/23 18:02:35;;;;;;;4.40;3.10;;;;;;;13.17;64.69;99097.88;263910;1098;114753;-66
2021/05/23 18:08:18;;;;;;;4.58;2.95;;;;;;;13.16;64.56;99101.52;263867;1095;114305;-68
2021/05/23 18:13:48;;;;;;;4.78;2.95;;;;;;;13.14;64.13;99103.44;263834;1100;114564;-66
2021/05/23 18:26:30;;;;;;;5.60;3.03;;;;;;;13.20;64.16;99103.86;263873;1099;114500;-66
2021/05/23 18:32:44;;;;;;;4.90;3.40;;;;;;;13.19;64.39;99112.84;263739;1098;115079;-66
2021/05/23 18:38:46;;;;;;;5.10;3.20;;;;;;;13.16;64.54;99130.92;263872;1095;114558;-66
2021/05/23 18:44:59;;;;;;;4.60;3.13;;;;;;;13.13;64.88;99140.00;263848;1098;114842;-66
2021/05/23 18:51:15;;;;;;;6.28;3.45;;;;;;;13.11;65.00;99155.30;263884;1096;114511;-66
2021/05/23 18:56:30;;;;;;;6.38;3.88;;;;;;;13.13;64.60;99153.36;263857;1100;114341;-68
2021/05/23 19:01:49;;;;;;;7.10;4.13;;;;;;;13.13;64.10;99164.05;263842;1095;114237;-65
2021/05/23 19:07:17;;;;;;;6.93;3.78;;;;;;;13.13;65.34;99176.56;263875;1100;114879;-65
2021/05/23 19:12:45;;;;;;;7.23;3.93;;;;;;;13.11;64.20;99189.16;263831;1096;114495;-65
2021/05/23 19:18:23;;;;;;;6.35;4.18;;;;;;;13.13;64.40;99198.78;263810;1100;115154;-65
2021/05/23 19:24:10;;;;;;;5.85;3.83;;;;;;;13.10;64.16;99212.36;263616;1099;114617;-64
2021/05/23 19:30:11;;;;;;;9.05;4.20;;;;;;;13.02;63.94;99217.39;263836;1095;114500;-65
2021/05/23 19:35:51;;;;;;;9.50;4.70;;;;;;;13.03;64.91;99222.61;263884;1098;114767;-65
2021/05/23 19:41:41;;;;;;;8.20;5.00;;;;;;;13.10;65.09;99214.18;263756;1096;114255;-65
2021/05/23 19:46:47;;;;;;;7.58;4.83;;;;;;;13.10;64.47;99232.88;263869;1100;114639;-67
2021/05/23 19:52:39;;;;;;;7.20;5.00;;;;;;;13.08;64.56;99238.34;263837;1095;115828;-64
2021/05/23 19:57:45;;;;;;;9.43;5.05;;;;;;;13.00;65.18;99246.02;263894;1100;114701;-65
2021/05/23 20:03:14;;;;;;;8.85;5.28;;;;;;;12.94;64.77;99246.43;263827;1095;114618;-67
2021/05/23 20:08:40;;;;;;;9.93;5.48;;;;;;;12.88;64.35;99252.22;263831;1100;114867;-65
2021/05/23 20:14:24;;;;;;;9.60;5.63;;;;;;;12.90;65.08;99258.30;263835;1096;114653;-67
2021/05/23 20:20:33;;;;;;;10.15;5.78;;;;;;;12.82;64.88;99242.80;263810;1096;114842;-64
2021/05/23 20:26:17;;;;;;;9.65;5.43;;;;;;;12.76;64.51;99249.39;263853;1100;114516;-68
2021/05/23 20:31:51;;;;;;;10.87;6.33;;;;;;;12.70;64.51;99251.63;263809;1096;114490;-67
2021/05/23 20:38:37;;;;;;;14.90;6.95;;;;;;;12.58;65.22;99253.31;263845;1100;114906;-66
2021/05/23 20:44:18;;;;;;;10.70;5.90;;;;;;;12.52;64.59;99259.06;263822;1096;115943;-65
2021/05/23 20:51:17;;;;;;;10.08;6.20;;;;;;;12.55;65.71;99269.53;263886;1096;114730;-66
2021/05/23 21:03:48;;;;;;;15.63;7.68;;;;;;;12.54;65.39;99302.54;263839;1097;114415;-66
2021/05/23 21:09:33;;;;;;;15.75;8.63;;;;;;;12.47;65.73;99310.09;263804;1100;115500;-66
2021/05/23 21:20:55;;;;;;;14.40;8.77;;;;;;;12.35;65.82;99305.55;263062;1095;206468;-67
2021/05/23 21:26:12;;;;;;;14.35;8.68;;;;;;;12.35;65.50;99321.55;263860;1098;116172;-65
2021/05/23 21:31:17;;;;;;;14.90;8.80;;;;;;;12.38;66.09;99321.36;263810;1096;114434;-66
2021/05/23 21:36:43;;;;;;;17.23;8.83;;;;;;;12.41;65.46;99329.17;263821;1101;114668;-65
2021/05/23 21:41:47;;;;;;;14.13;8.03;;;;;;;12.44;65.91;99326.30;263838;1096;114898;-66
2021/05/23 21:47:14;;;;;;;13.50;7.30;;;;;;;12.46;65.79;99331.53;263800;1100;114958;-65
2021/05/23 21:52:27;;;;;;;;;;;;;;;12.40;65.51;99335.48;263916;1096;115070;-66
2021/05/23 21:58:11;;;;;;;11.00;6.30;;;;;;;12.32;65.59;99340.43;263917;1099;118448;-65
2021/05/23 22:10:41;;;;;;;11.50;6.65;;;;;;;12.18;64.99;99354.66;261819;1098;114914;-61
2021/05/23 22:16:32;;;;;;;12.70;7.08;;;;;;;12.15;65.63;99368.19;262116;1095;114281;-64
2021/05/23 22:22:06;;;;;;;12.03;7.17;;;;;;;12.16;65.85;99371.71;262074;1100;113592;-66
2021/05/23 22:27:53;;;;;;;11.73;7.50;;;;;;;12.11;65.17;99384.50;261773;1097;113286;-64
2021/05/23 22:40:05;;;;;;;11.83;7.33;;;;;;;11.98;65.62;99395.92;261933;1100;114056;-65
2021/05/23 22:45:50;;;;;;;14.48;7.58;;;;;;;11.95;65.16;99395.26;262294;1100;114554;-65
2021/05/23 22:52:51;;;;;;;13.73;7.68;;;;;;;11.92;65.10;99401.66;263874;1100;115669;-64
2021/05/23 22:58:52;;;;;;;12.15;7.28;;;;;;;11.88;65.69;99405.45;263902;1096;114255;-65
2021/05/23 23:04:24;;;;;;;11.68;7.35;;;;;;;11.86;65.12;99410.03;263884;1100;115051;-65
2021/05/23 23:10:35;;;;;;;10.83;7.30;;;;;;;11.80;65.55;99418.38;263875;1096;114196;-64
2021/05/23 23:16:20;;;;;;;11.40;7.43;;;;;;;11.72;66.11;99421.52;263846;1095;114681;-64
2021/05/23 23:21:28;;;;;;;12.38;7.33;;;;;;;11.66;65.32;99431.69;263864;1100;114517;-66
2021/05/23 23:26:56;;;;;;;11.35;6.65;;;;;;;11.64;65.54;99436.23;263823;1096;115251;-64
2021/05/23 23:32:27;;;;;;;15.35;7.48;;;;;;;11.66;65.61;99435.20;263881;1098;114685;-64
2021/05/23 23:38:26;;;;;;;11.75;6.80;;;;;;;11.71;66.02;99448.25;263863;1096;115041;-65
2021/05/23 23:44:25;;;;;;;10.60;6.97;;;;;;;11.72;64.99;99453.50;263801;1101;114432;-65
2021/05/23 23:56:13;;;;;;;13.05;7.55;;;;;;;11.57;65.87;99471.25;263894;1100;114696;-64
